createdAt,value
2022-09-07T00:00:27.881Z,100778.28
2022-09-07T00:01:00.812Z,100781.81
2022-09-07T00:01:33.022Z,100773.97
2022-09-07T00:02:35.557Z,100782.03
2022-09-07T00:03:08.117Z,100769.91
2022-09-07T00:03:40.437Z,100760.75
2022-09-07T00:04:15.281Z,100776.13
2022-09-07T00:04:47.527Z,100770.72
2022-09-07T00:05:19.812Z,100773.66
2022-09-07T00:05:55.535Z,100776.34
2022-09-07T00:06:27.790Z,100766.09
2022-09-07T00:06:59.959Z,100774.41
2022-09-07T00:07:34.981Z,100778.19
2022-09-07T00:08:07.154Z,100773.06
2022-09-07T00:08:40.584Z,100778.44
2022-09-07T00:09:15.422Z,100768.72
2022-09-07T00:09:47.560Z,100773.28
2022-09-07T00:10:19.934Z,100773.28
2022-09-07T00:10:56.791Z,100783.84
2022-09-07T00:11:29.199Z,100781.91
2022-09-07T00:12:01.544Z,100783.53
2022-09-07T00:12:36.334Z,100782.97
2022-09-07T00:13:09.051Z,100780.25
2022-09-07T00:13:42.550Z,100784.34
2022-09-07T00:14:17.438Z,100779.72
2022-09-07T00:14:49.623Z,100784.53
2022-09-07T00:15:23.202Z,100777.50
2022-09-07T00:15:58.518Z,100779.38
2022-09-07T00:16:31.880Z,100782.91
2022-09-07T00:17:06.672Z,100783.97
2022-09-07T00:17:42.318Z,100782.34
2022-09-07T00:18:14.510Z,100785.25
2022-09-07T00:18:49.885Z,100774.47
2022-09-07T00:19:22.829Z,100780.09
2022-09-07T00:19:55.502Z,100783.06
2022-09-07T00:20:30.223Z,100774.16
2022-09-07T00:21:04.855Z,100781.19
2022-09-07T00:21:40.475Z,100781.44
2022-09-07T00:22:12.659Z,100780.88
2022-09-07T00:22:46.340Z,100778.97
2022-09-07T00:23:21.100Z,100783.56
2022-09-07T00:23:54.347Z,100783.31
2022-09-07T00:24:26.599Z,100785.72
2022-09-07T00:25:01.415Z,100781.38
2022-09-07T00:25:38.755Z,100786.75
2022-09-07T00:26:12.869Z,100786.59
2022-09-07T00:26:47.716Z,100770.84
2022-09-07T00:27:19.963Z,100781.88
2022-09-07T00:27:52.199Z,100777.31
2022-09-07T00:28:27.002Z,100774.63
2022-09-07T00:29:00.624Z,100773.00
2022-09-07T00:29:32.900Z,100775.69
2022-09-07T00:30:09.208Z,100780.81
2022-09-07T00:30:42.424Z,100777.31
2022-09-07T00:31:17.986Z,100772.75
2022-09-07T00:31:52.919Z,100776.50
2022-09-07T00:32:25.288Z,100779.44
2022-09-07T00:33:00.160Z,100767.59
2022-09-07T00:33:35.079Z,100770.28
2022-09-07T00:34:07.434Z,100768.66
2022-09-07T00:34:39.681Z,100777.31
2022-09-07T00:35:14.498Z,100771.94
2022-09-07T00:35:46.735Z,100771.94
2022-09-07T00:36:20.502Z,100783.00
2022-09-07T00:36:55.443Z,100776.50
2022-09-07T00:37:27.641Z,100772.16
2022-09-07T00:37:59.898Z,100776.50
2022-09-07T00:38:32.555Z,100777.31
2022-09-07T00:39:08.679Z,100755.69
2022-09-07T00:39:40.934Z,100774.03
2022-09-07T00:40:13.306Z,100764.31
2022-09-07T00:40:48.342Z,100772.41
2022-09-07T00:41:21.886Z,100771.03
2022-09-07T00:41:54.108Z,100770.81
2022-09-07T00:42:29.086Z,100768.13
2022-09-07T00:43:01.666Z,100765.66
2022-09-07T00:43:37.108Z,100765.41
2022-09-07T00:44:41.883Z,100766.41
2022-09-07T00:45:16.770Z,100770.09
2022-09-07T00:45:48.964Z,100760.38
2022-09-07T00:46:26.121Z,100759.91
2022-09-07T00:46:58.545Z,100765.53
2022-09-07T00:47:37.995Z,100772.31
2022-09-07T00:48:20.058Z,100767.16
2022-09-07T00:48:56.760Z,100767.16
2022-09-07T00:49:30.123Z,100765.28
2022-09-07T00:50:10.764Z,100766.34
2022-09-07T00:50:46.821Z,100769.03
2022-09-07T00:51:24.830Z,100758.25
2022-09-07T00:52:03.682Z,100750.41
2022-09-07T00:52:37.151Z,100764.16
2022-09-07T00:53:13.898Z,100757.69
2022-09-07T00:53:55.610Z,100763.06
2022-09-07T00:54:33.170Z,100762.53
2022-09-07T00:55:10.753Z,100760.06
2022-09-07T00:55:48.700Z,100764.09
2022-09-07T00:56:22.566Z,100757.88
2022-09-07T00:56:54.894Z,100753.31
2022-09-07T00:57:31.224Z,100763.34
2022-09-07T00:58:04.834Z,100761.94
2022-09-07T00:58:42.276Z,100761.94
2022-09-07T00:59:17.867Z,100757.66
2022-09-07T00:59:52.697Z,100757.06
2022-09-07T01:00:28.290Z,100744.41
2022-09-07T01:01:00.535Z,100751.44
2022-09-07T01:01:36.317Z,100752.25
2022-09-07T01:02:09.241Z,100756.81
2022-09-07T01:02:42.018Z,100746.88
2022-09-07T01:03:20.188Z,100755.78
2022-09-07T01:03:58.331Z,100749.00
2022-09-07T01:04:31.274Z,100749.00
2022-09-07T01:05:11.144Z,100759.53
2022-09-07T01:05:46.561Z,100745.75
2022-09-07T01:06:24.675Z,100751.13
2022-09-07T01:06:57.479Z,100738.72
2022-09-07T01:07:29.856Z,100750.31
2022-09-07T01:08:05.583Z,100749.22
2022-09-07T01:08:37.989Z,100746.81
2022-09-07T01:09:13.174Z,100748.69
2022-09-07T01:09:51.008Z,100752.44
2022-09-07T01:10:26.677Z,100752.44
2022-09-07T01:11:03.240Z,100735.44
2022-09-07T01:11:37.097Z,100758.88
2022-09-07T01:12:09.761Z,100745.16
2022-09-07T01:12:44.492Z,100745.16
2022-09-07T01:13:16.947Z,100753.25
2022-09-07T01:13:51.075Z,100751.38
2022-09-07T01:14:29.211Z,100742.72
2022-09-07T01:15:02.198Z,100743.81
2022-09-07T01:15:43.240Z,100745.41
2022-09-07T01:16:32.141Z,100748.38
2022-09-07T01:17:14.792Z,100738.91
2022-09-07T01:17:59.795Z,100754.88
2022-09-07T01:18:44.543Z,100737.03
2022-09-07T01:19:46.757Z,100736.72
2022-09-07T01:20:54.249Z,100736.41
2022-09-07T01:21:34.951Z,100739.34
2022-09-07T01:22:20.115Z,100737.47
2022-09-07T01:23:22.231Z,100738.28
2022-09-07T01:24:36.149Z,100739.56
2022-09-07T01:25:13.729Z,100735.28
2022-09-07T01:26:03.123Z,100742.84
2022-09-07T01:27:03.364Z,100738.53
2022-09-07T01:28:06.072Z,100739.25
2022-09-07T01:28:39.123Z,100736.84
2022-09-07T01:29:18.469Z,100734.69
2022-09-07T01:29:59.427Z,100737.41
2022-09-07T01:30:38.114Z,100735.53
2022-09-07T01:31:18.937Z,100734.69
2022-09-07T01:32:02.554Z,100734.69
2022-09-07T01:32:58.116Z,100734.94
2022-09-07T01:33:43.365Z,100732.50
2022-09-07T01:34:21.493Z,100736.25
2022-09-07T01:34:57.109Z,100736.25
2022-09-07T01:35:40.297Z,100731.69
2022-09-07T01:36:28.533Z,100740.84
2022-09-07T01:37:10.135Z,100733.00
2022-09-07T01:37:56.774Z,100734.91
2022-09-07T01:38:39.566Z,100734.91
2022-09-07T01:39:12.339Z,100734.91
2022-09-07T01:39:53.273Z,100730.06
2022-09-07T01:40:36.976Z,100728.44
2022-09-07T01:41:16.775Z,100724.91
2022-09-07T01:41:56.619Z,100727.59
2022-09-07T01:42:33.577Z,100734.63
2022-09-07T01:43:12.857Z,100722.81
2022-09-07T01:43:54.161Z,100723.03
2022-09-07T01:44:31.057Z,100721.16
2022-09-07T01:45:11.472Z,100725.72
2022-09-07T01:45:43.940Z,100719.72
2022-09-07T01:46:21.099Z,100732.94
2022-09-07T01:47:04.119Z,100727.28
2022-09-07T01:47:41.914Z,100728.34
2022-09-07T01:48:18.584Z,100735.94
2022-09-07T01:48:56.600Z,100727.06
2022-09-07T01:49:35.391Z,100731.63
2022-09-07T01:50:12.168Z,100729.16
2022-09-07T01:50:53.719Z,100718.97
2022-09-07T01:51:32.234Z,100722.72
2022-09-07T01:52:13.097Z,100724.59
2022-09-07T01:52:51.262Z,100728.13
2022-09-07T01:53:26.676Z,100728.13
2022-09-07T01:54:09.970Z,100725.41
2022-09-07T01:54:47.600Z,100715.72
2022-09-07T01:55:26.914Z,100725.41
2022-09-07T01:56:03.246Z,100728.69
2022-09-07T01:56:42.121Z,100723.31
2022-09-07T01:57:17.975Z,100723.31
2022-09-07T01:57:54.991Z,100724.13
2022-09-07T01:58:37.614Z,100724.13
2022-09-07T01:59:17.014Z,100722.50
2022-09-07T01:59:53.783Z,100717.09
2022-09-07T02:00:32.431Z,100721.69
2022-09-07T02:01:10.001Z,100723.31
2022-09-07T02:01:48.102Z,100721.44
2022-09-07T02:02:27.522Z,100712.53
2022-09-07T02:03:06.303Z,100721.69
2022-09-07T02:03:44.806Z,100714.66
2022-09-07T02:04:24.153Z,100716.28
2022-09-07T02:05:03.398Z,100717.09
2022-09-07T02:05:48.767Z,100714.66
2022-09-07T02:06:25.614Z,100715.72
2022-09-07T02:07:09.154Z,100717.59
2022-09-07T02:07:46.624Z,100717.59
2022-09-07T02:08:24.634Z,100716.81
2022-09-07T02:09:03.472Z,100714.09
2022-09-07T02:09:39.095Z,100724.06
2022-09-07T02:10:16.803Z,100714.09
2022-09-07T02:10:56.236Z,100713.28
2022-09-07T02:11:35.172Z,100711.66
2022-09-07T02:12:14.071Z,100724.28
2022-09-07T02:12:54.907Z,100718.91
2022-09-07T02:13:34.103Z,100715.63
2022-09-07T02:14:11.096Z,100718.34
2022-09-07T02:14:52.855Z,100713.22
2022-09-07T02:15:31.724Z,100720.47
2022-09-07T02:16:08.881Z,100711.81
2022-09-07T02:16:51.500Z,100715.31
2022-09-07T02:17:34.220Z,100719.06
2022-09-07T02:18:13.980Z,100705.88
2022-09-07T02:18:50.883Z,100715.59
2022-09-07T02:19:29.445Z,100715.59
2022-09-07T02:20:06.618Z,100708.56
2022-09-07T02:20:45.353Z,100713.97
2022-09-07T02:21:26.475Z,100703.19
2022-09-07T02:22:06.817Z,100709.63
2022-09-07T02:22:42.473Z,100711.75
2022-09-07T02:23:19.472Z,100711.75
2022-09-07T02:23:59.705Z,100714.44
2022-09-07T02:24:36.094Z,100710.97
2022-09-07T02:25:15.257Z,100710.16
2022-09-07T02:25:53.762Z,100710.97
2022-09-07T02:26:29.503Z,100713.06
2022-09-07T02:27:11.303Z,100719.28
2022-09-07T02:27:47.723Z,100714.13
2022-09-07T02:28:29.189Z,100716.00
2022-09-07T02:29:04.450Z,100709.81
2022-09-07T02:29:36.772Z,100707.13
2022-09-07T02:30:13.730Z,100712.25
2022-09-07T02:30:46.267Z,100706.06
2022-09-07T02:31:18.759Z,100709.31
2022-09-07T02:31:54.003Z,100703.13
2022-09-07T02:32:26.199Z,100703.94
2022-09-07T02:32:58.419Z,100705.81
2022-09-07T02:33:31.464Z,100709.06
2022-09-07T02:34:06.562Z,100710.69
2022-09-07T02:34:38.851Z,100705.56
2022-09-07T02:35:11.366Z,100710.97
2022-09-07T02:35:46.323Z,100704.75
2022-09-07T02:36:25.072Z,100714.72
2022-09-07T02:37:00.118Z,100706.06
2022-09-07T02:37:36.512Z,100709.56
2022-09-07T02:38:08.936Z,100712.25
2022-09-07T02:38:41.405Z,100717.63
2022-09-07T02:39:16.266Z,100711.19
2022-09-07T02:39:49.510Z,100713.06
2022-09-07T02:40:21.760Z,100713.88
2022-09-07T02:40:59.011Z,100705.81
2022-09-07T02:41:33.833Z,100706.88
2022-09-07T02:42:07.154Z,100711.44
2022-09-07T02:42:42.335Z,100706.88
2022-09-07T02:43:14.509Z,100704.19
2022-09-07T02:43:46.727Z,100702.31
2022-09-07T02:44:28.018Z,100712.25
2022-09-07T02:45:00.918Z,100713.31
2022-09-07T02:45:44.785Z,100716.00
2022-09-07T02:46:29.605Z,100707.38
2022-09-07T02:47:24.196Z,100715.13
2022-09-07T02:48:14.389Z,100704.84
2022-09-07T02:48:54.865Z,100714.00
2022-09-07T02:49:34.282Z,100706.09
2022-09-07T02:50:29.821Z,100709.03
2022-09-07T02:51:11.903Z,100705.50
2022-09-07T02:51:54.122Z,100713.34
2022-09-07T02:52:36.533Z,100708.78
2022-09-07T02:53:19.845Z,100709.84
2022-09-07T02:54:14.609Z,100710.91
2022-09-07T02:54:59.118Z,100704.97
2022-09-07T02:55:45.249Z,100705.78
2022-09-07T02:56:30.586Z,100713.84
2022-09-07T02:57:17.750Z,100713.03
2022-09-07T02:58:01.348Z,100714.09
2022-09-07T02:58:41.644Z,100706.84
2022-09-07T02:59:32.180Z,100713.03
2022-09-07T03:00:10.100Z,100707.88
2022-09-07T03:00:48.868Z,100712.22
2022-09-07T03:01:35.913Z,100706.00
2022-09-07T03:02:16.137Z,100708.69
2022-09-07T03:02:58.004Z,100704.38
2022-09-07T03:03:42.070Z,100712.22
2022-09-07T03:04:18.897Z,100711.41
2022-09-07T03:05:01.159Z,100707.66
2022-09-07T03:05:42.909Z,100713.84
2022-09-07T03:06:22.579Z,100700.41
2022-09-07T03:07:03.271Z,100704.97
2022-09-07T03:07:44.434Z,100703.91
2022-09-07T03:08:20.786Z,100705.78
2022-09-07T03:08:58.327Z,100702.03
2022-09-07T03:09:36.728Z,100711.72
2022-09-07T03:10:10.410Z,100706.31
2022-09-07T03:10:46.728Z,100702.59
2022-09-07T03:11:19.524Z,100709.59
2022-09-07T03:11:52.618Z,100706.09
2022-09-07T03:12:27.571Z,100697.78
2022-09-07T03:12:59.793Z,100706.91
2022-09-07T03:13:32.881Z,100695.09
2022-09-07T03:14:18.562Z,100705.84
2022-09-07T03:14:53.553Z,100706.91
2022-09-07T03:15:28.138Z,100705.03
2022-09-07T03:16:03.302Z,100703.97
2022-09-07T03:16:35.655Z,100701.28
2022-09-07T03:17:08.019Z,100703.72
2022-09-07T03:17:43.590Z,100696.47
2022-09-07T03:18:15.755Z,100702.66
2022-09-07T03:18:47.912Z,100706.16
2022-09-07T03:19:22.639Z,100707.81
2022-09-07T03:19:55.052Z,100705.13
2022-09-07T03:20:29.983Z,100709.41
2022-09-07T03:21:02.243Z,100705.13
2022-09-07T03:21:34.434Z,100707.81
2022-09-07T03:22:06.702Z,100699.72
2022-09-07T03:22:41.986Z,100708.63
2022-09-07T03:23:14.371Z,100708.63
2022-09-07T03:23:51.176Z,100708.63
2022-09-07T03:24:26.563Z,100707.00
2022-09-07T03:24:59.054Z,100711.56
2022-09-07T03:25:33.903Z,100705.13
2022-09-07T03:26:06.503Z,100708.88
2022-09-07T03:26:41.186Z,100706.16
2022-09-07T03:27:15.955Z,100703.47
2022-09-07T03:27:48.091Z,100710.72
2022-09-07T03:28:20.334Z,100708.03
2022-09-07T03:28:55.127Z,100698.09
2022-09-07T03:29:27.416Z,100696.47
2022-09-07T03:30:03.358Z,100699.97
2022-09-07T03:30:38.432Z,100700.22
2022-09-07T03:31:10.785Z,100706.41
2022-09-07T03:31:43.004Z,100706.16
2022-09-07T03:32:17.770Z,100702.66
2022-09-07T03:32:49.994Z,100698.34
2022-09-07T03:33:24.748Z,100694.81
2022-09-07T03:33:56.974Z,100698.84
2022-09-07T03:34:29.261Z,100694.28
2022-09-07T03:35:05.213Z,100703.16
2022-09-07T03:35:37.374Z,100699.66
2022-09-07T03:36:12.387Z,100689.94
2022-09-07T03:36:44.594Z,100698.03
2022-09-07T03:37:16.771Z,100702.34
2022-09-07T03:37:51.682Z,100696.97
2022-09-07T03:38:24.028Z,100696.97
2022-09-07T03:38:57.109Z,100703.16
2022-09-07T03:39:32.183Z,100703.16
2022-09-07T03:40:06.384Z,100689.94
2022-09-07T03:40:38.638Z,100699.66
2022-09-07T03:41:13.468Z,100700.47
2022-09-07T03:41:45.663Z,100698.03
2022-09-07T03:42:18.143Z,100698.84
2022-09-07T03:42:53.071Z,100702.34
2022-09-07T03:43:25.376Z,100696.16
2022-09-07T03:43:57.553Z,100705.03
2022-09-07T03:44:32.411Z,100706.69
2022-09-07T03:45:09.143Z,100701.53
2022-09-07T03:45:43.947Z,100703.41
2022-09-07T03:46:19.740Z,100700.72
2022-09-07T03:46:52.077Z,100702.59
2022-09-07T03:47:26.894Z,100700.72
2022-09-07T03:47:59.185Z,100703.41
2022-09-07T03:48:31.883Z,100705.84
2022-09-07T03:49:06.951Z,100703.97
2022-09-07T03:49:39.184Z,100701.28
2022-09-07T03:50:11.925Z,100705.03
2022-09-07T03:50:46.653Z,100704.22
2022-09-07T03:51:19.250Z,100707.72
2022-09-07T03:51:54.035Z,100703.97
2022-09-07T03:52:26.681Z,100709.59
2022-09-07T03:52:58.854Z,100707.72
2022-09-07T03:53:34.573Z,100709.38
2022-09-07T03:54:07.297Z,100705.03
2022-09-07T03:54:39.918Z,100709.38
2022-09-07T03:55:14.811Z,100709.38
2022-09-07T03:55:56.475Z,100708.78
2022-09-07T03:56:28.732Z,100706.91
2022-09-07T03:57:03.626Z,100710.41
2022-09-07T03:57:35.943Z,100712.84
2022-09-07T03:58:08.138Z,100702.91
2022-09-07T03:58:43.260Z,100690.03
2022-09-07T03:59:15.453Z,100702.66
2022-09-07T03:59:47.968Z,100710.72
2022-09-07T04:00:26.241Z,100715.28
2022-09-07T04:00:59.616Z,100716.34
2022-09-07T04:01:31.981Z,100706.41
2022-09-07T04:02:07.076Z,100714.47
2022-09-07T04:02:39.463Z,100712.06
2022-09-07T04:03:11.730Z,100711.25
2022-09-07T04:03:44.773Z,100706.69
2022-09-07T04:04:19.601Z,100716.84
2022-09-07T04:04:51.842Z,100717.69
2022-09-07T04:05:23.981Z,100713.09
2022-09-07T04:05:58.748Z,100707.72
2022-09-07T04:06:34.911Z,100716.63
2022-09-07T04:07:07.139Z,100714.97
2022-09-07T04:07:39.525Z,100717.44
2022-09-07T04:08:12.151Z,100720.13
2022-09-07T04:08:48.771Z,100715.53
2022-09-07T04:09:21.030Z,100719.84
2022-09-07T04:09:53.220Z,100713.94
2022-09-07T04:10:28.360Z,100714.75
2022-09-07T04:11:02.554Z,100715.53
2022-09-07T04:11:38.148Z,100714.97
2022-09-07T04:12:10.553Z,100720.38
2022-09-07T04:12:42.715Z,100714.97
2022-09-07T04:13:14.869Z,100718.50
2022-09-07T04:13:49.761Z,100716.03
2022-09-07T04:14:22.266Z,100720.59
2022-09-07T04:14:54.458Z,100719.78
2022-09-07T04:15:31.941Z,100720.59
2022-09-07T04:16:10.876Z,100720.59
2022-09-07T04:16:44.950Z,100722.75
2022-09-07T04:17:19.965Z,100718.97
2022-09-07T04:17:52.421Z,100722.75
2022-09-07T04:18:25.442Z,100712.78
2022-09-07T04:19:00.383Z,100712.53
2022-09-07T04:19:32.702Z,100718.97
2022-09-07T04:20:05.970Z,100722.47
2022-09-07T04:20:40.788Z,100722.47
2022-09-07T04:21:14.043Z,100717.91
2022-09-07T04:21:47.325Z,100720.38
2022-09-07T04:22:22.197Z,100722.25
2022-09-07T04:22:54.622Z,100719.53
2022-09-07T04:23:26.863Z,100716.63
2022-09-07T04:24:01.936Z,100721.72
2022-09-07T04:24:34.241Z,100714.75
2022-09-07T04:25:06.797Z,100725.25
2022-09-07T04:25:48.924Z,100724.69
2022-09-07T04:26:23.676Z,100725.75
2022-09-07T04:26:56.662Z,100716.84
2022-09-07T04:27:32.030Z,100725.97
2022-09-07T04:28:04.434Z,100723.88
2022-09-07T04:28:36.606Z,100718.50
2022-09-07T04:29:11.390Z,100722.00
2022-09-07T04:29:43.603Z,100723.88
2022-09-07T04:30:15.870Z,100722.00
2022-09-07T04:30:53.243Z,100720.91
2022-09-07T04:31:25.966Z,100723.59
2022-09-07T04:32:00.850Z,100726.28
2022-09-07T04:32:33.166Z,100729.00
2022-09-07T04:33:05.345Z,100724.69
2022-09-07T04:33:40.241Z,100726.56
2022-09-07T04:34:12.668Z,100723.28
2022-09-07T04:34:44.883Z,100719.53
2022-09-07T04:35:19.902Z,100721.19
2022-09-07T04:35:52.142Z,100722.00
2022-09-07T04:36:27.675Z,100712.84
2022-09-07T04:36:59.919Z,100721.72
2022-09-07T04:37:32.109Z,100717.16
2022-09-07T04:38:07.160Z,100718.00
2022-09-07T04:38:40.270Z,100717.16
2022-09-07T04:39:15.229Z,100722.56
2022-09-07T04:39:47.448Z,100718.81
2022-09-07T04:40:19.652Z,100721.25
2022-09-07T04:40:59.229Z,100721.00
2022-09-07T04:41:35.971Z,100715.59
2022-09-07T04:42:08.265Z,100718.31
2022-09-07T04:42:40.467Z,100724.81
2022-09-07T04:43:13.385Z,100721.06
2022-09-07T04:43:49.214Z,100725.41
2022-09-07T04:44:21.451Z,100726.22
2022-09-07T04:44:53.624Z,100725.97
2022-09-07T04:45:29.732Z,100722.47
2022-09-07T04:46:06.434Z,100718.13
2022-09-07T04:46:38.784Z,100724.34
2022-09-07T04:47:13.533Z,100727.28
2022-09-07T04:47:48.022Z,100728.66
2022-09-07T04:48:20.251Z,100732.41
2022-09-07T04:48:56.744Z,100722.47
2022-09-07T04:49:28.888Z,100719.19
2022-09-07T04:50:01.098Z,100722.47
2022-09-07T04:50:33.396Z,100725.72
2022-09-07T04:51:08.807Z,100724.66
2022-09-07T04:51:43.010Z,100731.66
2022-09-07T04:52:17.849Z,100727.09
2022-09-07T04:52:50.042Z,100728.41
2022-09-07T04:53:22.351Z,100731.91
2022-09-07T04:53:59.394Z,100726.28
2022-09-07T04:54:31.857Z,100724.88
2022-09-07T04:55:05.262Z,100729.44
2022-09-07T04:55:37.458Z,100728.66
2022-09-07T04:56:16.794Z,100727.84
2022-09-07T04:56:49.252Z,100730.19
2022-09-07T04:57:24.409Z,100737.22
2022-09-07T04:57:59.307Z,100733.72
2022-09-07T04:58:32.226Z,100737.22
2022-09-07T04:59:04.961Z,100728.09
2022-09-07T04:59:39.824Z,100731.59
2022-09-07T05:00:13.004Z,100735.09
2022-09-07T05:00:45.201Z,100729.72
2022-09-07T05:01:24.389Z,100726.75
2022-09-07T05:01:56.800Z,100725.16
2022-09-07T05:02:29.037Z,100726.75
2022-09-07T05:03:03.906Z,100723.03
2022-09-07T05:03:39.117Z,100723.59
2022-09-07T05:04:11.455Z,100729.81
2022-09-07T05:04:46.181Z,100721.72
2022-09-07T05:05:18.549Z,100721.72
2022-09-07T05:05:50.816Z,100723.34
2022-09-07T05:06:26.237Z,100725.78
2022-09-07T05:06:58.414Z,100725.78
2022-09-07T05:07:30.721Z,100730.13
2022-09-07T05:08:05.980Z,100728.25
2022-09-07T05:08:39.390Z,100724.72
2022-09-07T05:09:11.722Z,100725.28
2022-09-07T05:09:46.546Z,100721.53
2022-09-07T05:10:18.754Z,100723.16
2022-09-07T05:10:52.173Z,100722.34
2022-09-07T05:11:29.395Z,100725.34
2022-09-07T05:12:02.634Z,100724.28
2022-09-07T05:12:34.924Z,100718.69
2022-09-07T05:13:09.664Z,100722.19
2022-09-07T05:13:42.418Z,100723.78
2022-09-07T05:14:14.806Z,100731.63
2022-09-07T05:14:49.655Z,100719.53
2022-09-07T05:15:22.739Z,100726.00
2022-09-07T05:15:54.936Z,100722.22
2022-09-07T05:16:33.100Z,100724.13
2022-09-07T05:17:05.646Z,100728.69
2022-09-07T05:17:37.966Z,100728.69
2022-09-07T05:18:13.103Z,100722.22
2022-09-07T05:18:45.843Z,100726.56
2022-09-07T05:19:18.216Z,100724.69
2022-09-07T05:19:53.011Z,100725.50
2022-09-07T05:20:25.796Z,100726.56
2022-09-07T05:21:08.036Z,100729.25
2022-09-07T05:21:42.924Z,100729.25
2022-09-07T05:22:15.233Z,100731.94
2022-09-07T05:22:47.483Z,100730.06
2022-09-07T05:23:22.379Z,100725.50
2022-09-07T05:23:56.258Z,100726.56
2022-09-07T05:24:28.924Z,100725.72
2022-09-07T05:25:03.754Z,100729.00
2022-09-07T05:25:42.585Z,100732.50
2022-09-07T05:26:14.763Z,100725.25
2022-09-07T05:26:49.583Z,100722.56
2022-09-07T05:27:21.762Z,100721.47
2022-09-07T05:27:54.034Z,100721.25
2022-09-07T05:28:26.278Z,100721.47
2022-09-07T05:30:03.542Z,100717.66
2022-09-07T05:31:34.444Z,100718.97
2022-09-07T05:32:09.249Z,100724.13
2022-09-07T05:32:44.982Z,100719.28
2022-09-07T05:33:17.255Z,100725.50
2022-09-07T05:34:47.613Z,100717.66
2022-09-07T05:35:24.403Z,100722.81
2022-09-07T05:35:57.634Z,100714.50
2022-09-07T05:36:30.383Z,100718.78
2022-09-07T05:37:05.496Z,100723.69
2022-09-07T05:37:38.143Z,100721.00
2022-09-07T05:38:10.339Z,100715.34
2022-09-07T05:38:45.387Z,100715.91
2022-09-07T05:39:18.426Z,100721.31
2022-09-07T05:39:56.389Z,100720.25
2022-09-07T05:40:39.854Z,100721.31
2022-09-07T05:41:13.265Z,100719.66
2022-09-07T05:41:48.116Z,100719.66
2022-09-07T05:42:20.344Z,100724.81
2022-09-07T05:42:52.888Z,100721.84
2022-09-07T05:43:27.846Z,100719.75
2022-09-07T05:44:55.065Z,100719.16
2022-09-07T05:45:27.330Z,100715.16
2022-09-07T05:45:59.524Z,100718.16
2022-09-07T05:46:37.254Z,100713.38
2022-09-07T05:47:09.758Z,100721.16
2022-09-07T05:47:44.571Z,100720.94
2022-09-07T05:48:16.843Z,100714.22
2022-09-07T05:48:49.038Z,100718.53
2022-09-07T05:49:21.219Z,100706.72
2022-09-07T05:49:57.174Z,100713.47
2022-09-07T05:50:29.739Z,100717.78
2022-09-07T05:51:02.214Z,100714.03
2022-09-07T05:51:37.231Z,100717.56
2022-09-07T05:52:09.505Z,100717.56
2022-09-07T05:52:46.158Z,100715.69
2022-09-07T05:53:18.898Z,100709.47
2022-09-07T05:53:51.068Z,100717.56
2022-09-07T05:54:25.923Z,100714.59
2022-09-07T05:55:07.762Z,100720.78
2022-09-07T05:55:52.883Z,100719.44
2022-09-07T05:56:25.027Z,100717.03
2022-09-07T05:56:57.273Z,100722.19
2022-09-07T05:57:32.180Z,100713.03
2022-09-07T05:58:04.834Z,100710.06
2022-09-07T05:58:37.806Z,100716.84
2022-09-07T05:59:12.823Z,100720.38
2022-09-07T05:59:45.159Z,100723.84
2022-09-07T06:00:17.681Z,100716.34
2022-09-07T06:00:52.488Z,100720.16
2022-09-07T06:01:24.683Z,100721.78
2022-09-07T06:02:00.096Z,100706.44
2022-09-07T06:02:39.488Z,100717.75
2022-09-07T06:03:12.445Z,100722.34
2022-09-07T06:03:45.650Z,100725.59
2022-09-07T06:04:20.719Z,100727.25
2022-09-07T06:04:52.889Z,100722.41
2022-09-07T06:05:25.142Z,100724.03
2022-09-07T06:06:04.670Z,100720.28
2022-09-07T06:06:38.782Z,100718.63
2022-09-07T06:07:23.175Z,100716.53
2022-09-07T06:07:55.913Z,100725.91
2022-09-07T06:08:28.189Z,100721.09
2022-09-07T06:09:03.101Z,100718.13
2022-09-07T06:09:35.514Z,100725.16
2022-09-07T06:11:08.657Z,100723.28
2022-09-07T06:11:41.077Z,100722.25
2022-09-07T06:12:13.360Z,100718.22
2022-09-07T06:12:49.597Z,100723.13
2022-09-07T06:13:22.548Z,100716.56
2022-09-07T06:13:54.900Z,100721.53
2022-09-07T06:14:29.786Z,100724.22
2022-09-07T06:15:02.014Z,100724.78
2022-09-07T06:15:34.306Z,100722.66
2022-09-07T06:16:11.409Z,100716.19
2022-09-07T06:16:43.723Z,100726.72
2022-09-07T06:17:21.164Z,100729.16
2022-09-07T06:17:53.806Z,100719.44
2022-09-07T06:18:32.858Z,100722.44
2022-09-07T06:19:06.171Z,100726.53
2022-09-07T06:19:38.442Z,100724.88
2022-09-07T06:20:14.042Z,100728.13
2022-09-07T06:20:46.417Z,100721.94
2022-09-07T06:21:20.601Z,100727.06
2022-09-07T06:21:55.430Z,100726.00
2022-09-07T06:22:30.940Z,100727.63
2022-09-07T06:23:07.369Z,100723.88
2022-09-07T06:23:41.448Z,100725.47
2022-09-07T06:24:13.906Z,100721.72
2022-09-07T06:24:48.659Z,100731.97
2022-09-07T06:25:20.931Z,100729.28
2022-09-07T06:25:53.083Z,100727.41
2022-09-07T06:26:27.905Z,100723.41
2022-09-07T06:27:00.095Z,100723.94
2022-09-07T06:27:32.362Z,100730.16
2022-09-07T06:28:07.228Z,100723.47
2022-09-07T06:28:40.970Z,100729.38
2022-09-07T06:29:13.414Z,100724.81
2022-09-07T06:29:48.196Z,100726.44
2022-09-07T06:30:20.968Z,100728.09
2022-09-07T06:30:53.217Z,100731.31
2022-09-07T06:31:28.955Z,100728.91
2022-09-07T06:32:59.054Z,100730.25
2022-09-07T06:33:31.371Z,100729.19
2022-09-07T06:34:03.568Z,100729.50
2022-09-07T06:34:38.426Z,100730.03
2022-09-07T06:35:11.624Z,100737.06
2022-09-07T06:35:43.820Z,100729.78
2022-09-07T06:36:20.667Z,100727.91
2022-09-07T06:36:53.004Z,100735.75
2022-09-07T06:37:25.346Z,100735.47
2022-09-07T06:38:00.156Z,100733.34
2022-09-07T06:38:33.967Z,100730.41
2022-09-07T06:39:06.307Z,100736.34
2022-09-07T06:39:41.267Z,100739.03
2022-09-07T06:40:13.643Z,100736.09
2022-09-07T06:40:45.840Z,100739.59
2022-09-07T06:42:14.197Z,100736.09
2022-09-07T06:42:52.203Z,100746.34
2022-09-07T06:43:24.435Z,100741.78
2022-09-07T06:43:57.915Z,100740.44
2022-09-07T06:44:32.763Z,100738.31
2022-09-07T06:45:06.266Z,100745.34
2022-09-07T06:45:38.553Z,100752.09
2022-09-07T06:47:05.842Z,100744.25
2022-09-07T06:47:40.579Z,100759.13
2022-09-07T06:48:15.674Z,100751.03
2022-09-07T06:48:47.846Z,100742.09
2022-09-07T06:49:23.713Z,100738.06
2022-09-07T06:49:55.927Z,100741.34
2022-09-07T06:50:28.338Z,100741.09
2022-09-07T06:51:04.834Z,100737.84
2022-09-07T06:51:37.036Z,100743.00
2022-09-07T06:52:09.268Z,100746.53
2022-09-07T06:53:39.555Z,100737.84
2022-09-07T06:55:09.712Z,100747.03
2022-09-07T06:55:47.485Z,100741.13
2022-09-07T06:56:19.930Z,100747.59
2022-09-07T06:56:55.682Z,100751.66
2022-09-07T06:57:28.098Z,100747.59